Time;durP1;ratioP1;P1;durP2;ratioP2;P2;SDS_P1;SDS_P2;PMS_P1;PMS_P2;Temp;Humidity;BMP_temperature;BMP_pressure;BME280_temperature;BME280_humidity;BME280_pressure;Samples;Min_cycle;Max_cycle;Signal;HPM_P1;HPM_P2
2022/05/31 00:00:30;;;;;;;9.73;5.88;;;;;;;20.72;70.69;99905.56;5066643;28;20045;-30
2022/05/31 00:02:56;;;;;;;10.73;5.90;;;;;;;21.25;69.19;99917.06;5066546;28;20411;-31
2022/05/31 00:05:22;;;;;;;12.23;5.93;;;;;;;21.01;69.73;99927.16;5066272;28;20466;-32
2022/05/31 00:07:48;;;;;;;7.78;5.78;;;;;;;20.53;70.17;99910.94;5066724;28;20058;-33
2022/05/31 00:10:15;;;;;;;8.80;6.18;;;;;;;20.63;70.19;99927.09;5066537;28;20127;-31
2022/05/31 00:12:42;;;;;;;9.02;6.20;;;;;;;20.45;70.35;99915.91;5066592;28;20031;-29
2022/05/31 00:15:09;;;;;;;11.10;6.68;;;;;;;20.71;70.38;99918.31;5066426;28;20036;-32
2022/05/31 00:17:35;;;;;;;8.68;5.88;;;;;;;20.83;69.59;99921.41;5066491;28;20426;-31
2022/05/31 00:20:02;;;;;;;12.77;6.60;;;;;;;20.44;71.31;99927.81;5066094;28;20028;-31
2022/05/31 00:22:28;;;;;;;13.32;6.75;;;;;;;20.53;71.49;99910.94;5048324;28;20028;-29
2022/05/31 00:24:54;;;;;;;11.98;7.30;;;;;;;20.62;71.48;99936.31;5066683;28;20226;-29
2022/05/31 00:27:22;;;;;;;9.65;6.72;;;;;;;20.31;72.63;99931.22;5066583;28;20105;-29
2022/05/31 00:29:48;;;;;;;10.63;6.85;;;;;;;20.12;71.61;99939.25;5048302;28;20504;-29
2022/05/31 00:32:16;;;;;;;10.18;5.70;;;;;;;20.04;73.23;99939.84;5066588;28;20538;-30
2022/05/31 00:34:44;;;;;;;9.30;5.72;;;;;;;20.00;72.60;99941.53;5066180;28;20147;-32
2022/05/31 00:37:10;;;;;;;9.50;5.80;;;;;;;19.66;73.93;99918.78;5066349;28;20029;-32
2022/05/31 00:39:36;;;;;;;8.70;6.10;;;;;;;19.70;73.81;99932.56;5066399;28;20392;-30
2022/05/31 00:42:07;;;;;;;9.88;6.00;;;;;;;19.30;74.50;99960.69;5047916;28;20032;-30
2022/05/31 00:44:34;;;;;;;9.73;6.15;;;;;;;19.07;76.11;99952.16;5048162;28;20039;-31
2022/05/31 00:47:03;;;;;;;12.48;6.63;;;;;;;19.18;75.92;99937.47;5047910;28;20028;-30
2022/05/31 00:49:37;;;;;;;10.95;6.25;;;;;;;19.20;75.70;99959.63;5066419;28;20043;-30
2022/05/31 00:52:22;;;;;;;11.52;7.00;;;;;;;19.18;76.22;99969.91;5066282;28;20027;-30
2022/05/31 00:54:57;;;;;;;11.00;7.15;;;;;;;19.02;76.91;99971.91;5058572;28;20051;-32
2022/05/31 00:57:23;;;;;;;13.20;6.70;;;;;;;19.07;76.13;99957.56;5069835;28;20029;-34
2022/05/31 00:59:55;;;;;;;11.88;7.47;;;;;;;19.04;77.61;99967.03;5051238;28;20032;-29
2022/05/31 01:02:21;;;;;;;10.15;7.03;;;;;;;19.37;75.74;99966.56;5070037;28;20060;-30
2022/05/31 01:04:55;;;;;;;11.00;7.15;;;;;;;19.70;75.21;99978.53;5051688;28;20028;-30
2022/05/31 01:07:21;;;;;;;9.68;6.53;;;;;;;19.73;75.64;99977.19;5069731;28;20511;-35
2022/05/31 01:09:47;;;;;;;11.70;7.57;;;;;;;19.86;75.20;99979.28;5069441;28;20024;-29
2022/05/31 01:12:15;;;;;;;10.95;7.43;;;;;;;19.60;74.02;99987.53;5069158;28;20495;-30
2022/05/31 01:14:41;;;;;;;12.25;7.63;;;;;;;19.52;74.31;99958.38;5069788;28;20119;-29
2022/05/31 01:17:10;;;;;;;11.13;7.93;;;;;;;20.17;73.87;99966.28;5051757;28;20430;-30
2022/05/31 01:22:20;;;;;;;11.05;7.35;;;;;;;19.89;73.73;99965.16;5069680;28;20489;-33
2022/05/31 01:25:09;;;;;;;11.38;7.40;;;;;;;20.30;72.85;99975.63;5069267;28;20028;-31
2022/05/31 01:28:07;;;;;;;10.40;7.45;;;;;;;20.19;73.15;99979.53;5069359;28;20020;-32
2022/05/31 01:30:42;;;;;;;12.05;7.82;;;;;;;20.03;72.80;99971.53;5069259;28;20028;-31
2022/05/31 01:33:14;;;;;;;10.40;7.70;;;;;;;20.37;72.00;99984.25;5069270;28;20166;-30
2022/05/31 01:35:40;;;;;;;12.85;7.38;;;;;;;20.13;73.00;99975.25;5068817;28;20053;-31
2022/05/31 01:38:11;;;;;;;11.68;7.68;;;;;;;19.97;74.36;99964.56;5068875;28;20032;-32
2022/05/31 01:40:52;;;;;;;11.45;8.60;;;;;;;20.07;73.66;99988.84;5068967;28;20033;-31
2022/05/31 01:43:17;;;;;;;10.13;7.82;;;;;;;20.08;73.44;99978.81;5068865;28;20037;-33
2022/05/31 01:46:15;;;;;;;11.02;7.90;;;;;;;20.34;72.23;99971.25;5068337;28;20035;-30
2022/05/31 01:48:42;;;;;;;14.93;8.05;;;;;;;19.57;74.91;99979.97;5068892;28;20475;-30
2022/05/31 01:51:10;;;;;;;10.18;7.63;;;;;;;19.02;77.14;99984.59;5068847;28;20036;-32
2022/05/31 01:53:36;;;;;;;10.23;7.20;;;;;;;19.25;75.27;99989.38;5068993;28;20029;-29
2022/05/31 01:56:03;;;;;;;11.15;7.28;;;;;;;18.80;77.49;99974.97;5068362;28;20041;-29
2022/05/31 01:58:33;;;;;;;12.07;7.63;;;;;;;19.25;76.04;99997.47;5068757;28;20572;-29
2022/05/31 02:01:01;;;;;;;10.90;7.38;;;;;;;19.45;75.87;100007.38;5068618;28;20090;-29
2022/05/31 02:03:28;;;;;;;11.27;8.18;;;;;;;19.63;74.08;100002.38;5068341;28;20024;-29
2022/05/31 02:05:55;;;;;;;10.57;7.75;;;;;;;19.24;74.99;100006.66;5050308;28;20094;-29
2022/05/31 02:08:23;;;;;;;11.25;7.18;;;;;;;18.83;76.96;99995.22;5068161;28;20034;-30
2022/05/31 02:10:48;;;;;;;11.95;7.80;;;;;;;18.94;77.07;100002.22;5068595;28;20077;-30
2022/05/31 02:13:16;;;;;;;11.77;7.97;;;;;;;19.05;76.27;100008.38;5068283;28;20032;-30
2022/05/31 02:15:42;;;;;;;9.93;7.40;;;;;;;19.39;74.67;100007.66;5049906;28;20044;-29
2022/05/31 02:18:09;;;;;;;10.65;7.13;;;;;;;19.74;72.87;99998.56;5068163;28;20037;-33
2022/05/31 02:20:34;;;;;;;13.30;7.47;;;;;;;19.46;73.27;99992.75;5068207;28;20107;-34
2022/05/31 02:23:00;;;;;;;9.32;7.60;;;;;;;19.33;74.09;100008.78;5067848;28;20116;-33
2022/05/31 02:25:26;;;;;;;12.90;8.30;;;;;;;19.53;73.94;100003.25;5067884;28;20055;-30
2022/05/31 02:27:51;;;;;;;12.98;7.95;;;;;;;19.87;72.30;100022.28;5068097;28;20502;-30
2022/05/31 02:30:17;;;;;;;12.68;8.65;;;;;;;19.52;72.94;100012.47;5067900;28;20494;-29
2022/05/31 02:32:43;;;;;;;12.98;8.52;;;;;;;19.26;73.33;100031.53;5067952;28;20052;-29
2022/05/31 02:35:11;;;;;;;17.67;8.90;;;;;;;18.98;76.01;100016.78;5067908;28;20110;-32
2022/05/31 02:37:37;;;;;;;108.20;15.03;;;;;;;19.00;76.26;100038.13;5049701;28;20043;-35
2022/05/31 02:40:05;;;;;;;13.90;7.80;;;;;;;18.90;76.30;100035.44;5068110;28;20255;-29
2022/05/31 02:42:31;;;;;;;9.55;7.57;;;;;;;18.96;74.73;100034.34;5068030;28;20165;-31
2022/05/31 02:44:57;;;;;;;12.82;7.63;;;;;;;19.79;74.49;100046.41;5067703;28;20533;-30
2022/05/31 02:47:23;;;;;;;13.75;7.72;;;;;;;19.85;72.92;100042.59;5067912;28;20111;-30
2022/05/31 02:49:49;;;;;;;14.05;7.65;;;;;;;19.42;74.66;100043.06;5067290;28;20108;-33
2022/05/31 02:52:15;;;;;;;13.85;8.10;;;;;;;19.39;74.09;100045.53;5067830;28;20034;-29
2022/05/31 02:54:40;;;;;;;12.30;8.32;;;;;;;19.25;73.08;100040.72;5067951;28;20031;-29
2022/05/31 02:57:06;;;;;;;12.98;7.20;;;;;;;19.24;76.11;100027.47;5067517;28;20033;-30
2022/05/31 02:59:32;;;;;;;11.15;7.32;;;;;;;20.00;72.23;100038.97;5067504;28;20036;-30
2022/05/31 03:01:57;;;;;;;11.95;8.60;;;;;;;19.49;75.08;100040.06;5067236;28;20021;-31
2022/05/31 03:04:24;;;;;;;11.73;7.50;;;;;;;19.49;74.62;100034.66;5067196;28;20028;-29
2022/05/31 03:06:49;;;;;;;13.80;8.30;;;;;;;19.21;74.00;100045.06;5048767;28;20034;-32
2022/05/31 03:09:15;;;;;;;10.30;7.78;;;;;;;19.18;75.48;100036.69;5067452;28;20028;-31
2022/05/31 03:11:45;;;;;;;13.10;7.57;;;;;;;18.93;74.36;100033.00;5049041;28;20024;-32
2022/05/31 03:14:22;;;;;;;14.52;8.50;;;;;;;19.03;75.21;100053.78;5067141;28;20036;-29
2022/05/31 03:16:53;;;;;;;14.75;9.38;;;;;;;18.81;74.63;100071.13;5048476;28;20056;-33
2022/05/31 03:19:25;;;;;;;14.00;9.88;;;;;;;18.69;75.65;100070.56;5067030;28;20128;-30
2022/05/31 03:22:00;;;;;;;14.98;9.55;;;;;;;18.52;76.14;100075.47;5067557;28;20031;-31
2022/05/31 03:24:34;;;;;;;15.07;8.38;;;;;;;19.00;76.72;100070.53;5067432;28;20032;-30
2022/05/31 03:27:04;;;;;;;11.90;8.13;;;;;;;18.90;75.03;100070.56;5066909;28;20407;-29
2022/05/31 03:29:30;;;;;;;12.75;8.48;;;;;;;19.33;75.21;100073.66;5066939;28;20024;-31
2022/05/31 03:31:55;;;;;;;11.80;8.30;;;;;;;19.11;74.37;100058.63;5066315;28;20036;-36
2022/05/31 03:34:21;;;;;;;13.98;8.50;;;;;;;18.98;76.09;100059.19;5066851;28;20090;-33
2022/05/31 03:36:47;;;;;;;14.68;8.65;;;;;;;19.20;75.04;100069.66;5066952;28;20036;-29
2022/05/31 03:39:13;;;;;;;12.67;8.33;;;;;;;19.24;74.98;100071.53;5066691;28;20056;-29
2022/05/31 03:41:39;;;;;;;17.25;9.70;;;;;;;19.17;75.38;100076.44;5048681;28;20028;-31
2022/05/31 03:44:05;;;;;;;15.15;8.60;;;;;;;19.04;76.06;100087.81;5066732;28;20385;-31
2022/05/31 03:46:30;;;;;;;13.00;8.30;;;;;;;18.80;76.77;100072.22;5066690;28;20068;-29
2022/05/31 03:48:56;;;;;;;17.10;7.85;;;;;;;18.79;76.32;100072.50;5066851;28;20021;-30
2022/05/31 03:51:22;;;;;;;17.90;8.27;;;;;;;18.63;77.46;100060.88;5066919;28;20535;-30
2022/05/31 03:53:47;;;;;;;9.25;7.57;;;;;;;18.95;76.61;100075.97;5066527;28;20582;-30
2022/05/31 03:56:13;;;;;;;12.13;7.78;;;;;;;18.90;76.15;100059.75;5066940;28;20036;-30
2022/05/31 03:58:39;;;;;;;13.38;8.10;;;;;;;19.11;75.45;100069.44;5066789;28;20451;-30
2022/05/31 04:01:06;;;;;;;10.15;7.65;;;;;;;19.45;74.70;100066.03;5048343;28;21104;-30
2022/05/31 04:03:32;;;;;;;11.30;8.65;;;;;;;19.32;74.74;100072.88;5066807;28;20388;-29
2022/05/31 04:05:58;;;;;;;11.63;8.55;;;;;;;19.16;75.34;100077.53;5066636;28;20089;-30
2022/05/31 04:08:24;;;;;;;12.82;9.35;;;;;;;19.13;75.25;100059.16;5066717;28;20032;-29
2022/05/31 04:10:51;;;;;;;15.68;9.80;;;;;;;19.20;75.64;100067.78;5048384;28;20139;-30
2022/05/31 04:13:17;;;;;;;14.10;9.77;;;;;;;19.31;75.42;100071.28;5066555;28;20037;-29
2022/05/31 04:15:43;;;;;;;15.23;9.23;;;;;;;19.01;76.37;100082.97;5066468;28;20038;-30
2022/05/31 04:18:08;;;;;;;12.82;9.70;;;;;;;19.11;76.84;100087.56;5066884;28;20032;-32
2022/05/31 04:20:37;;;;;;;12.40;9.75;;;;;;;19.19;77.12;100079.69;5066708;28;20139;-33
2022/05/31 04:25:47;;;;;;;17.02;10.80;;;;;;;19.57;76.39;100096.28;5066348;28;20058;-29
2022/05/31 04:28:13;;;;;;;15.30;10.75;;;;;;;19.39;76.63;100080.69;5069315;28;20491;-31
2022/05/31 04:30:43;;;;;;;14.10;11.00;;;;;;;19.32;77.59;100101.81;5070415;28;20419;-30
2022/05/31 04:33:08;;;;;;;13.73;11.20;;;;;;;19.24;78.05;100081.56;5070236;28;20483;-29
2022/05/31 04:35:34;;;;;;;14.60;10.90;;;;;;;19.53;77.21;100089.81;5070094;28;20063;-33
2022/05/31 04:37:59;;;;;;;16.20;11.15;;;;;;;19.96;76.35;100106.41;5070051;28;20039;-30
2022/05/31 04:40:25;;;;;;;15.05;10.95;;;;;;;20.16;75.18;100107.34;5069835;28;20433;-30
2022/05/31 04:42:52;;;;;;;16.02;10.05;;;;;;;20.30;74.32;100105.63;5052059;28;20153;-29
2022/05/31 04:45:18;;;;;;;14.85;10.45;;;;;;;20.38;74.73;100126.69;5070171;28;20052;-31
2022/05/31 04:47:43;;;;;;;13.30;9.93;;;;;;;20.25;74.54;100113.78;5069948;28;20492;-30
2022/05/31 04:50:09;;;;;;;14.90;9.75;;;;;;;20.03;76.48;100103.38;5070081;28;20506;-31
2022/05/31 04:52:36;;;;;;;16.50;9.73;;;;;;;20.37;74.90;100108.81;5070109;28;20155;-31
2022/05/31 04:55:02;;;;;;;13.32;9.48;;;;;;;20.58;73.80;100112.19;5069564;28;20166;-31
2022/05/31 04:57:27;;;;;;;13.95;9.23;;;;;;;20.76;73.14;100113.41;5069950;28;20033;-31
2022/05/31 04:59:53;;;;;;;13.43;9.00;;;;;;;20.91;72.73;100107.00;5051593;28;20033;-30
2022/05/31 05:02:18;;;;;;;12.15;10.15;;;;;;;21.16;72.59;100108.63;5051725;28;20032;-31
2022/05/31 05:04:44;;;;;;;29.17;22.17;;;;;;;21.37;71.60;100111.09;5069739;28;20040;-30
2022/05/31 05:07:09;;;;;;;14.82;11.45;;;;;;;21.19;72.54;100104.56;5069585;28;20025;-35
2022/05/31 05:09:35;;;;;;;16.55;11.32;;;;;;;21.20;71.89;100100.72;5069395;28;20497;-32
2022/05/31 05:12:00;;;;;;;44.15;32.22;;;;;;;21.37;71.30;100111.09;5069308;28;20131;-30
2022/05/31 05:14:26;;;;;;;16.63;11.15;;;;;;;21.34;71.98;100111.69;5069505;28;20418;-29
2022/05/31 05:16:53;;;;;;;13.20;8.85;;;;;;;21.46;70.67;100106.69;5069560;28;20691;-31
2022/05/31 05:19:18;;;;;;;25.23;18.42;;;;;;;21.51;70.51;100112.03;5069806;28;20040;-30
2022/05/31 05:21:44;;;;;;;12.75;7.82;;;;;;;21.57;67.49;100118.22;5069219;28;20574;-31
2022/05/31 05:24:09;;;;;;;10.77;7.53;;;;;;;21.57;66.46;100112.78;5069238;28;20060;-33
2022/05/31 05:26:36;;;;;;;14.75;9.13;;;;;;;21.65;66.96;100125.72;5069544;28;20032;-31
2022/05/31 05:31:46;;;;;;;13.13;7.72;;;;;;;21.62;67.02;100129.03;5069483;28;20502;-34
2022/05/31 05:34:12;;;;;;;11.57;8.13;;;;;;;21.74;66.61;100131.28;5069038;28;20059;-30
2022/05/31 05:36:37;;;;;;;11.52;8.23;;;;;;;21.93;66.39;100121.28;5069352;28;20093;-33
2022/05/31 05:39:04;;;;;;;12.68;8.10;;;;;;;21.95;66.00;100124.50;5068075;28;20384;-32
2022/05/31 05:41:30;;;;;;;12.98;9.73;;;;;;;22.23;66.03;100109.19;5050782;28;20079;-34
2022/05/31 05:43:56;;;;;;;15.48;8.88;;;;;;;22.31;64.55;100115.81;5068815;28;20136;-30
2022/05/31 05:46:24;;;;;;;12.77;8.85;;;;;;;22.29;65.58;100119.94;5050627;28;20177;-30
2022/05/31 05:48:51;;;;;;;14.48;8.75;;;;;;;22.32;65.65;100109.31;5050205;28;20028;-32
2022/05/31 05:51:20;;;;;;;14.25;9.25;;;;;;;22.42;64.51;100103.72;5050536;28;20472;-30
2022/05/31 05:53:46;;;;;;;15.90;10.30;;;;;;;22.53;65.20;100115.22;5050193;28;20029;-30
2022/05/31 05:56:13;;;;;;;12.48;9.32;;;;;;;22.72;64.54;100115.19;5050535;28;20415;-29
2022/05/31 05:58:39;;;;;;;13.68;8.68;;;;;;;22.74;64.45;100129.28;5068231;28;20510;-29
2022/05/31 06:01:09;;;;;;;10.82;8.82;;;;;;;22.79;64.48;100131.88;5050356;28;20028;-29
2022/05/31 06:03:46;;;;;;;10.85;8.95;;;;;;;22.88;65.60;100132.00;5066869;28;20024;-30
2022/05/31 06:06:15;;;;;;;10.32;8.80;;;;;;;23.09;64.11;100131.66;5084093;28;20528;-30
2022/05/31 06:08:54;;;;;;;10.80;8.82;;;;;;;23.25;62.17;100124.81;5050411;28;20124;-31
2022/05/31 06:11:37;;;;;;;13.38;8.60;;;;;;;23.36;63.27;100122.72;5068542;28;20036;-31
2022/05/31 06:14:17;;;;;;;13.68;9.60;;;;;;;23.33;62.22;100123.31;5050130;28;20040;-30
2022/05/31 06:16:47;;;;;;;11.50;8.90;;;;;;;23.60;62.91;100134.19;5050617;28;20112;-30
2022/05/31 06:19:23;;;;;;;14.13;9.07;;;;;;;23.71;61.55;100104.03;5068163;28;20804;-30
2022/05/31 06:21:50;;;;;;;18.02;9.65;;;;;;;23.95;61.41;100123.66;5083271;28;20040;-32
2022/05/31 06:24:17;;;;;;;12.70;8.70;;;;;;;23.88;59.85;100125.97;5083349;28;20041;-29
2022/05/31 06:26:43;;;;;;;12.80;8.68;;;;;;;23.83;59.65;100096.16;5067877;28;20032;-30
2022/05/31 06:29:08;;;;;;;13.88;9.18;;;;;;;24.08;59.70;100110.31;5068029;28;20032;-30
2022/05/31 06:31:34;;;;;;;12.73;8.48;;;;;;;24.15;58.86;100105.22;5067987;28;20028;-31
2022/05/31 06:33:59;;;;;;;15.38;8.55;;;;;;;24.61;58.18;100106.84;5067386;28;20031;-31
2022/05/31 06:36:25;;;;;;;11.00;7.80;;;;;;;24.75;57.10;100112.22;5067781;28;20056;-34
2022/05/31 06:38:50;;;;;;;12.23;7.57;;;;;;;24.58;56.87;100107.47;5067508;28;20432;-31
2022/05/31 06:41:16;;;;;;;12.10;7.20;;;;;;;24.52;57.58;100095.06;5067350;28;20028;-32
2022/05/31 06:43:41;;;;;;;10.85;6.80;;;;;;;24.63;56.34;100108.13;5067527;28;20035;-32
2022/05/31 06:46:10;;;;;;;18.63;8.15;;;;;;;24.77;57.42;100120.91;5067652;28;20032;-32
2022/05/31 06:48:36;;;;;;;10.10;7.68;;;;;;;24.71;55.98;100105.78;5049593;28;20124;-30
2022/05/31 06:51:12;;;;;;;10.18;7.28;;;;;;;24.72;56.28;100112.84;5048503;28;20036;-31
2022/05/31 06:59:06;;;;;;;12.45;7.68;;;;;;;24.97;55.26;100092.28;5067710;28;20892;-29
2022/05/31 07:01:31;;;;;;;14.55;7.15;;;;;;;25.27;54.90;100079.72;5067308;28;20032;-34
2022/05/31 07:04:00;;;;;;;11.45;7.30;;;;;;;25.62;54.71;100097.00;5067136;28;20089;-32
2022/05/31 07:06:26;;;;;;;12.07;6.90;;;;;;;25.47;53.66;100094.69;5066938;28;20036;-34
2022/05/31 07:08:52;;;;;;;9.90;6.18;;;;;;;25.85;53.05;100105.03;5049216;28;20028;-30
2022/05/31 07:11:17;;;;;;;9.30;6.15;;;;;;;25.76;52.63;100098.75;5066925;28;20032;-29
2022/05/31 07:13:43;;;;;;;9.15;6.38;;;;;;;25.59;52.19;100108.53;5066907;28;20029;-30
2022/05/31 07:16:08;;;;;;;8.38;5.80;;;;;;;25.76;52.59;100101.47;5066852;28;20036;-31
2022/05/31 07:18:34;;;;;;;12.15;6.07;;;;;;;25.99;52.81;100104.91;5067217;28;20111;-30
2022/05/31 07:21:01;;;;;;;7.85;5.70;;;;;;;26.23;51.83;100105.22;5067206;28;20033;-33
2022/05/31 07:23:26;;;;;;;9.18;6.15;;;;;;;26.29;50.63;100091.38;5067159;28;20122;-31
2022/05/31 07:25:52;;;;;;;8.32;5.90;;;;;;;26.48;50.90;100100.06;5048601;28;20477;-30
2022/05/31 07:28:18;;;;;;;9.35;5.90;;;;;;;26.45;49.90;100100.69;5067016;28;20025;-32
2022/05/31 07:30:44;;;;;;;12.05;6.05;;;;;;;26.19;48.80;100092.50;5082388;28;20036;-30
2022/05/31 07:33:12;;;;;;;9.13;6.15;;;;;;;26.51;48.35;100099.38;5066610;28;20028;-33
2022/05/31 07:35:41;;;;;;;10.52;6.93;;;;;;;26.59;49.09;100106.81;5044698;28;20565;-31
2022/05/31 07:38:08;;;;;;;11.48;6.95;;;;;;;26.52;50.02;100100.19;5045589;28;20039;-31
2022/05/31 07:40:34;;;;;;;10.70;6.63;;;;;;;26.24;50.65;100089.63;5046840;28;20729;-34
2022/05/31 07:43:00;;;;;;;11.20;7.28;;;;;;;26.16;51.24;100093.19;5045338;28;20032;-30
2022/05/31 07:45:25;;;;;;;10.18;6.75;;;;;;;26.70;50.32;100085.34;5045321;28;20040;-31
2022/05/31 07:47:51;;;;;;;9.07;6.57;;;;;;;27.01;49.82;100100.69;5046438;28;20025;-32
2022/05/31 07:50:16;;;;;;;9.00;6.68;;;;;;;27.03;49.82;100109.38;5046485;28;20029;-33
2022/05/31 07:52:42;;;;;;;9.60;6.80;;;;;;;26.77;49.04;100091.16;5046754;28;20033;-32
2022/05/31 07:55:09;;;;;;;13.52;6.35;;;;;;;27.01;48.83;100103.44;5046498;28;20036;-34
2022/05/31 08:00:18;;;;;;;12.07;7.20;;;;;;;26.89;48.35;100097.84;5046541;28;20419;-34
2022/05/31 08:02:44;;;;;;;9.98;6.68;;;;;;;26.90;49.04;100083.06;5048934;28;20487;-30
2022/05/31 08:05:09;;;;;;;11.20;6.93;;;;;;;26.86;48.60;100094.63;5050688;28;20024;-32
2022/05/31 08:07:35;;;;;;;10.90;6.88;;;;;;;27.27;47.82;100097.06;5051000;28;20080;-32
2022/05/31 08:10:00;;;;;;;12.48;6.40;;;;;;;27.56;47.03;100086.09;5050291;28;20040;-32
2022/05/31 08:12:26;;;;;;;9.07;6.53;;;;;;;27.67;47.63;100085.72;5050862;28;20048;-32
2022/05/31 08:14:51;;;;;;;10.45;6.90;;;;;;;27.90;45.61;100081.53;5050215;28;20468;-34
2022/05/31 08:17:17;;;;;;;10.95;6.68;;;;;;;28.20;46.45;100073.22;5050399;28;20025;-30
2022/05/31 08:19:43;;;;;;;12.75;6.90;;;;;;;28.42;44.85;100081.03;5050665;28;20732;-30
2022/05/31 08:22:08;;;;;;;8.32;6.22;;;;;;;28.68;44.81;100090.94;5048955;28;20032;-31
2022/05/31 08:24:34;;;;;;;11.40;6.75;;;;;;;28.56;43.42;100085.44;5050400;28;20472;-31
2022/05/31 08:27:00;;;;;;;11.95;6.72;;;;;;;28.62;43.99;100081.34;5050090;28;20540;-30
2022/05/31 08:29:26;;;;;;;12.23;7.40;;;;;;;28.48;44.16;100061.63;5050056;28;20068;-30
2022/05/31 08:31:52;;;;;;;11.85;7.25;;;;;;;28.79;44.35;100075.66;5049556;28;20040;-33
2022/05/31 08:34:17;;;;;;;13.48;6.50;;;;;;;29.24;43.70;100076.72;5051615;28;20025;-32
2022/05/31 08:36:43;;;;;;;10.80;6.50;;;;;;;29.53;42.79;100064.66;5051810;28;20024;-32
2022/05/31 08:39:08;;;;;;;11.20;6.80;;;;;;;29.43;41.99;100070.63;5069766;28;20537;-31
2022/05/31 08:41:43;;;;;;;16.38;7.03;;;;;;;29.21;43.26;100056.22;5051711;28;20466;-30
2022/05/31 08:44:23;;;;;;;12.57;7.28;;;;;;;28.88;44.24;100066.50;5051558;28;20042;-31
2022/05/31 08:47:22;;;;;;;12.00;7.10;;;;;;;29.03;45.46;100071.31;5069698;28;20040;-31
2022/05/31 08:52:45;;;;;;;10.23;7.22;;;;;;;29.23;43.30;100064.91;5069953;28;20107;-37
2022/05/31 08:58:16;;;;;;;14.38;7.63;;;;;;;29.53;44.43;100050.91;5069757;28;20105;-30
2022/05/31 09:00:45;;;;;;;11.75;7.07;;;;;;;30.00;41.32;100063.28;5069477;28;20689;-30
2022/05/31 09:03:28;;;;;;;12.48;7.45;;;;;;;29.72;43.53;100068.75;5051163;28;20790;-32
2022/05/31 09:06:07;;;;;;;9.95;7.22;;;;;;;30.14;40.66;100063.69;5051286;28;20032;-30
2022/05/31 09:08:47;;;;;;;10.98;7.05;;;;;;;30.15;41.48;100056.22;5069249;28;20028;-37
2022/05/31 09:11:24;;;;;;;10.02;7.25;;;;;;;29.79;41.43;100046.97;5051147;28;20043;-35
2022/05/31 09:14:00;;;;;;;10.07;7.45;;;;;;;29.89;43.05;100062.97;5049797;28;20024;-38
2022/05/31 09:16:48;;;;;;;10.30;7.05;;;;;;;29.97;41.50;100056.50;5069285;28;20037;-33
2022/05/31 09:19:35;;;;;;;12.65;7.32;;;;;;;30.13;42.03;100051.06;5069149;28;20077;-30
2022/05/31 09:22:01;;;;;;;12.43;7.10;;;;;;;30.20;41.48;100050.47;5069121;28;20043;-31
2022/05/31 09:24:28;;;;;;;10.50;6.90;;;;;;;30.38;39.97;100043.53;5050997;28;20024;-32
2022/05/31 09:27:03;;;;;;;13.07;7.70;;;;;;;31.08;39.90;100044.03;5051065;28;20119;-30
2022/05/31 09:29:53;;;;;;;10.00;6.50;;;;;;;31.27;38.10;100051.56;5051044;28;20028;-30
2022/05/31 09:32:40;;;;;;;10.68;6.25;;;;;;;30.99;37.78;100047.78;5050380;28;20482;-32
2022/05/31 09:35:41;;;;;;;10.85;6.68;;;;;;;30.53;39.73;100043.91;5068909;28;20092;-31
2022/05/31 09:39:03;;;;;;;11.80;5.53;;;;;;;30.64;37.71;100040.22;5057634;28;20045;-35
2022/05/31 09:41:47;;;;;;;12.57;6.53;;;;;;;31.42;37.75;100048.75;4989931;28;20125;-35
2022/05/31 09:44:24;;;;;;;10.75;6.40;;;;;;;31.57;37.57;100044.41;5068758;28;20746;-30
2022/05/31 09:47:02;;;;;;;12.80;6.97;;;;;;;31.76;36.97;100037.28;5050483;28;20411;-37
2022/05/31 09:49:36;;;;;;;11.07;6.53;;;;;;;31.58;37.69;100040.47;5068776;28;20040;-30
2022/05/31 09:52:04;;;;;;;11.48;6.63;;;;;;;31.57;38.45;100033.38;5050454;28;20036;-35
2022/05/31 09:57:24;;;;;;;12.73;6.43;;;;;;;31.50;38.63;100016.66;5068650;28;20039;-30
2022/05/31 09:59:51;;;;;;;12.10;6.50;;;;;;;31.73;38.31;100026.97;5068254;28;20024;-31
2022/05/31 10:02:29;;;;;;;10.32;6.25;;;;;;;31.84;36.71;100031.56;5050288;28;20033;-31
2022/05/31 10:05:12;;;;;;;9.55;5.60;;;;;;;31.96;35.68;100025.09;5068265;28;20054;-36
2022/05/31 10:07:38;;;;;;;12.45;5.20;;;;;;;31.71;36.98;100015.50;5067586;28;20028;-31
2022/05/31 10:10:30;;;;;;;9.68;5.18;;;;;;;32.42;34.54;100016.88;5050146;28;20036;-33
2022/05/31 10:13:04;;;;;;;9.18;4.15;;;;;;;32.27;32.84;100020.56;5049935;28;20766;-35
2022/05/31 10:15:45;;;;;;;8.43;4.15;;;;;;;32.43;29.93;100017.69;5068013;28;20028;-30
2022/05/31 10:18:28;;;;;;;8.95;4.45;;;;;;;31.97;31.48;100023.13;5049716;28;20585;-31
2022/05/31 10:21:09;;;;;;;8.02;5.25;;;;;;;32.01;30.25;100022.03;5083511;28;20024;-40
2022/05/31 10:23:39;;;;;;;9.25;3.80;;;;;;;31.84;31.59;100005.94;5049956;28;20097;-32
2022/05/31 10:26:05;;;;;;;8.02;3.45;;;;;;;32.03;29.84;100025.25;5049424;28;20029;-34
2022/05/31 10:28:41;;;;;;;8.10;3.70;;;;;;;32.49;29.50;100024.50;5049640;28;20033;-30
2022/05/31 10:31:31;;;;;;;7.38;3.22;;;;;;;32.80;28.30;100020.69;5049866;28;20040;-30
2022/05/31 10:34:02;;;;;;;7.40;3.55;;;;;;;32.97;26.94;100013.03;5067348;28;20112;-30
2022/05/31 10:36:31;;;;;;;7.72;2.50;;;;;;;32.94;25.11;100011.03;5082801;28;20060;-30
2022/05/31 10:39:10;;;;;;;5.82;2.55;;;;;;;32.88;25.84;100020.81;5082859;28;20035;-32
2022/05/31 10:41:37;;;;;;;4.90;2.65;;;;;;;32.69;26.61;100013.38;5049488;28;20033;-32
2022/05/31 10:44:51;;;;;;;7.10;3.72;;;;;;;33.40;26.51;100008.91;5082992;28;20060;-35
2022/05/31 10:47:19;;;;;;;9.30;3.70;;;;;;;33.84;27.41;100013.03;5040067;28;20083;-32
2022/05/31 10:49:46;;;;;;;9.60;4.25;;;;;;;33.58;27.47;100009.16;5067207;28;20044;-34
2022/05/31 10:52:28;;;;;;;9.80;3.92;;;;;;;33.52;28.08;99996.81;5082961;28;20518;-32
2022/05/31 10:55:27;;;;;;;7.57;4.20;;;;;;;34.11;26.61;100018.47;5049045;28;20082;-31
2022/05/31 10:58:20;;;;;;;9.63;4.25;;;;;;;33.26;27.33;100013.47;5067385;28;20032;-31
2022/05/31 11:01:23;;;;;;;7.35;3.78;;;;;;;33.22;28.75;100013.41;5067357;28;20123;-30
2022/05/31 11:03:57;;;;;;;6.47;3.83;;;;;;;32.80;28.67;100001.34;5066807;28;20045;-38
2022/05/31 11:06:53;;;;;;;8.65;3.80;;;;;;;33.30;27.25;99997.72;5066921;28;20032;-35
2022/05/31 11:13:01;;;;;;;8.45;3.90;;;;;;;33.93;29.71;99987.84;5067229;28;20043;-33
2022/05/31 11:15:44;;;;;;;8.07;3.83;;;;;;;33.20;28.31;99982.59;5066890;28;20037;-30
2022/05/31 11:18:33;;;;;;;7.50;3.42;;;;;;;33.03;27.37;99972.88;5048686;28;20126;-32
2022/05/31 11:21:14;;;;;;;7.82;3.08;;;;;;;33.39;27.38;99968.63;5048937;28;20438;-30
2022/05/31 11:23:39;;;;;;;7.65;3.00;;;;;;;33.06;27.58;99966.59;5066505;28;20036;-32
2022/05/31 11:26:34;;;;;;;10.30;3.55;;;;;;;32.95;27.44;99955.41;5066846;28;20025;-30
2022/05/31 11:29:05;;;;;;;7.85;3.63;;;;;;;32.64;27.83;99945.47;5047904;28;20035;-35
2022/05/31 11:31:56;;;;;;;8.93;4.22;;;;;;;33.12;29.73;99948.56;5067075;28;20039;-32
2022/05/31 11:34:41;;;;;;;8.02;4.40;;;;;;;32.91;29.86;99937.19;5066330;28;20646;-30
2022/05/31 11:37:12;;;;;;;6.82;3.22;;;;;;;33.46;26.40;99945.03;5047573;28;20072;-31
2022/05/31 11:40:04;;;;;;;6.38;3.03;;;;;;;33.48;26.42;99937.94;5048401;28;20523;-33
2022/05/31 11:42:29;;;;;;;6.90;2.67;;;;;;;34.18;25.96;99943.81;5048574;28;20407;-34
2022/05/31 11:45:21;;;;;;;11.23;3.83;;;;;;;34.36;27.47;99939.22;5066590;28;20028;-32
2022/05/31 11:47:47;;;;;;;6.68;3.40;;;;;;;33.92;25.10;99942.78;5081459;28;20454;-31
2022/05/31 11:50:27;;;;;;;5.38;2.88;;;;;;;34.14;25.13;99943.00;5066322;28;20098;-33
2022/05/31 11:53:14;;;;;;;7.15;3.05;;;;;;;34.49;26.36;99952.75;5081846;28;20035;-32
2022/05/31 11:55:50;;;;;;;;;;;;;;;34.22;25.29;99952.94;5066707;28;20102;-34
2022/05/31 11:58:30;;;;;;;8.18;3.58;;;;;;;34.06;25.52;99955.16;5066759;28;19922;-30
2022/05/31 12:01:14;;;;;;;8.27;3.83;;;;;;;33.54;28.68;99960.53;5048300;28;20032;-31
2022/05/31 12:03:46;;;;;;;9.50;4.03;;;;;;;33.38;28.84;99972.56;5066345;28;20033;-30
2022/05/31 12:06:23;;;;;;;6.07;3.53;;;;;;;33.37;26.95;99967.44;5066350;28;20077;-34